sensor_id;sensor_type;location;lat;lon;timestamp;pressure;altitude;pressure_sealevel;temperature;humidity
57412;BME280;43247;52.828;-8.980;2023-02-04T00:00:32;103280.13;;;9.92;89.67
57412;BME280;43247;52.828;-8.980;2023-02-04T00:01:31;103278.79;;;9.93;89.53
57412;BME280;43247;52.828;-8.980;2023-02-04T00:02:31;103277.91;;;9.94;89.40
57412;BME280;43247;52.828;-8.980;2023-02-04T00:03:31;103279.12;;;9.95;89.31
57412;BME280;43247;52.828;-8.980;2023-02-04T00:04:31;103277.06;;;9.95;89.16
57412;BME280;43247;52.828;-8.980;2023-02-04T00:05:31;103278.48;;;9.95;89.16
57412;BME280;43247;52.828;-8.980;2023-02-04T00:06:32;103278.14;;;9.94;89.26
57412;BME280;43247;52.828;-8.980;2023-02-04T00:07:32;103278.06;;;9.95;89.37
57412;BME280;43247;52.828;-8.980;2023-02-04T00:08:32;103279.22;;;9.94;89.31
57412;BME280;43247;52.828;-8.980;2023-02-04T00:09:32;103277.25;;;9.94;89.40
57412;BME280;43247;52.828;-8.980;2023-02-04T00:10:33;103280.93;;;9.94;89.40
57412;BME280;43247;52.828;-8.980;2023-02-04T00:11:33;103282.67;;;9.94;89.36
57412;BME280;43247;52.828;-8.980;2023-02-04T00:12:33;103280.33;;;9.94;89.37
57412;BME280;43247;52.828;-8.980;2023-02-04T00:13:33;103278.19;;;9.94;89.37
57412;BME280;43247;52.828;-8.980;2023-02-04T00:14:33;103277.10;;;9.94;89.30
57412;BME280;43247;52.828;-8.980;2023-02-04T00:15:33;103278.38;;;9.93;89.41
57412;BME280;43247;52.828;-8.980;2023-02-04T00:16:34;103278.71;;;9.93;89.40
57412;BME280;43247;52.828;-8.980;2023-02-04T00:17:34;103276.80;;;9.93;89.36
57412;BME280;43247;52.828;-8.980;2023-02-04T00:18:34;103280.73;;;9.93;89.36
57412;BME280;43247;52.828;-8.980;2023-02-04T00:19:35;103278.23;;;9.93;89.35
57412;BME280;43247;52.828;-8.980;2023-02-04T00:20:35;103279.22;;;9.92;89.42
57412;BME280;43247;52.828;-8.980;2023-02-04T00:21:35;103281.57;;;9.92;89.46
57412;BME280;43247;52.828;-8.980;2023-02-04T00:22:35;103283.36;;;9.92;89.42
57412;BME280;43247;52.828;-8.980;2023-02-04T00:23:35;103283.52;;;9.91;89.42
57412;BME280;43247;52.828;-8.980;2023-02-04T00:24:36;103283.48;;;9.90;89.41
57412;BME280;43247;52.828;-8.980;2023-02-04T00:25:36;103284.55;;;9.90;89.38
57412;BME280;43247;52.828;-8.980;2023-02-04T00:26:36;103286.97;;;9.90;89.42
57412;BME280;43247;52.828;-8.980;2023-02-04T00:27:36;103289.88;;;9.90;89.40
57412;BME280;43247;52.828;-8.980;2023-02-04T00:28:36;103287.14;;;9.90;89.42
57412;BME280;43247;52.828;-8.980;2023-02-04T00:29:36;103285.53;;;9.89;89.45
57412;BME280;43247;52.828;-8.980;2023-02-04T00:30:37;103287.89;;;9.89;89.48
57412;BME280;43247;52.828;-8.980;2023-02-04T00:31:37;103288.12;;;9.88;89.52
57412;BME280;43247;52.828;-8.980;2023-02-04T00:32:37;103285.60;;;9.88;89.50
57412;BME280;43247;52.828;-8.980;2023-02-04T00:33:37;103290.95;;;9.88;89.45
57412;BME280;43247;52.828;-8.980;2023-02-04T00:34:37;103292.33;;;9.88;89.48
57412;BME280;43247;52.828;-8.980;2023-02-04T00:35:38;103296.26;;;9.89;89.51
57412;BME280;43247;52.828;-8.980;2023-02-04T00:36:38;103294.67;;;9.89;89.55
57412;BME280;43247;52.828;-8.980;2023-02-04T00:37:38;103294.05;;;9.89;89.48
57412;BME280;43247;52.828;-8.980;2023-02-04T00:38:38;103295.42;;;9.89;89.47
57412;BME280;43247;52.828;-8.980;2023-02-04T00:39:38;103296.13;;;9.89;89.44
57412;BME280;43247;52.828;-8.980;2023-02-04T00:40:38;103297.65;;;9.89;89.40
57412;BME280;43247;52.828;-8.980;2023-02-04T00:41:39;103297.52;;;9.89;89.47
57412;BME280;43247;52.828;-8.980;2023-02-04T00:42:39;103299.70;;;9.89;89.48
57412;BME280;43247;52.828;-8.980;2023-02-04T00:43:39;103295.62;;;9.88;89.52
57412;BME280;43247;52.828;-8.980;2023-02-04T00:44:39;103298.97;;;9.88;89.49
57412;BME280;43247;52.828;-8.980;2023-02-04T00:45:39;103299.61;;;9.87;89.46
57412;BME280;43247;52.828;-8.980;2023-02-04T00:46:40;103300.64;;;9.88;89.56
57412;BME280;43247;52.828;-8.980;2023-02-04T00:47:40;103300.47;;;9.88;89.61
57412;BME280;43247;52.828;-8.980;2023-02-04T00:48:40;103299.99;;;9.87;89.48
57412;BME280;43247;52.828;-8.980;2023-02-04T00:49:40;103301.13;;;9.88;89.37
57412;BME280;43247;52.828;-8.980;2023-02-04T00:50:40;103297.57;;;9.88;89.20
57412;BME280;43247;52.828;-8.980;2023-02-04T00:51:41;103299.35;;;9.89;89.15
57412;BME280;43247;52.828;-8.980;2023-02-04T00:52:41;103296.89;;;9.89;89.13
57412;BME280;43247;52.828;-8.980;2023-02-04T00:53:41;103298.86;;;9.89;89.19
57412;BME280;43247;52.828;-8.980;2023-02-04T00:54:41;103297.20;;;9.89;89.17
57412;BME280;43247;52.828;-8.980;2023-02-04T00:55:41;103295.35;;;9.89;89.18
57412;BME280;43247;52.828;-8.980;2023-02-04T00:56:42;103296.23;;;9.89;89.18
57412;BME280;43247;52.828;-8.980;2023-02-04T00:57:42;103296.79;;;9.88;89.21
57412;BME280;43247;52.828;-8.980;2023-02-04T00:58:42;103293.63;;;9.88;89.16
57412;BME280;43247;52.828;-8.980;2023-02-04T00:59:42;103294.44;;;9.88;89.20
57412;BME280;43247;52.828;-8.980;2023-02-04T01:00:42;103290.71;;;9.88;89.22
57412;BME280;43247;52.828;-8.980;2023-02-04T01:01:43;103290.61;;;9.88;89.26
57412;BME280;43247;52.828;-8.980;2023-02-04T01:02:43;103289.18;;;9.88;89.24
57412;BME280;43247;52.828;-8.980;2023-02-04T01:03:43;103287.38;;;9.87;89.19
57412;BME280;43247;52.828;-8.980;2023-02-04T01:04:43;103289.72;;;9.87;89.16
57412;BME280;43247;52.828;-8.980;2023-02-04T01:05:44;103285.96;;;9.87;89.19
57412;BME280;43247;52.828;-8.980;2023-02-04T01:06:44;103286.12;;;9.87;89.16
57412;BME280;43247;52.828;-8.980;2023-02-04T01:07:44;103287.19;;;9.87;89.18
57412;BME280;43247;52.828;-8.980;2023-02-04T01:08:44;103285.24;;;9.86;89.19
57412;BME280;43247;52.828;-8.980;2023-02-04T01:09:44;103285.89;;;9.86;89.14
57412;BME280;43247;52.828;-8.980;2023-02-04T01:10:45;103285.79;;;9.85;89.17
57412;BME280;43247;52.828;-8.980;2023-02-04T01:11:45;103286.07;;;9.85;89.16
57412;BME280;43247;52.828;-8.980;2023-02-04T01:12:45;103284.30;;;9.85;89.20
57412;BME280;43247;52.828;-8.980;2023-02-04T01:13:45;103287.22;;;9.84;89.22
57412;BME280;43247;52.828;-8.980;2023-02-04T01:14:45;103286.27;;;9.84;89.18
57412;BME280;43247;52.828;-8.980;2023-02-04T01:15:45;103287.25;;;9.84;89.20
57412;BME280;43247;52.828;-8.980;2023-02-04T01:16:46;103283.87;;;9.83;89.14
57412;BME280;43247;52.828;-8.980;2023-02-04T01:17:46;103283.33;;;9.82;89.14
57412;BME280;43247;52.828;-8.980;2023-02-04T01:18:46;103282.85;;;9.82;89.16
57412;BME280;43247;52.828;-8.980;2023-02-04T01:19:46;103281.77;;;9.81;89.16
57412;BME280;43247;52.828;-8.980;2023-02-04T01:20:46;103280.15;;;9.81;89.21
57412;BME280;43247;52.828;-8.980;2023-02-04T01:21:47;103278.07;;;9.81;89.22
57412;BME280;43247;52.828;-8.980;2023-02-04T01:22:47;103275.07;;;9.81;89.21
57412;BME280;43247;52.828;-8.980;2023-02-04T01:23:47;103274.91;;;9.81;89.25
57412;BME280;43247;52.828;-8.980;2023-02-04T01:24:47;103274.18;;;9.80;89.25
57412;BME280;43247;52.828;-8.980;2023-02-04T01:25:47;103274.89;;;9.81;89.23
57412;BME280;43247;52.828;-8.980;2023-02-04T01:26:47;103272.64;;;9.80;89.19
57412;BME280;43247;52.828;-8.980;2023-02-04T01:27:48;103274.92;;;9.80;89.21
57412;BME280;43247;52.828;-8.980;2023-02-04T01:28:49;103276.31;;;9.80;89.20
57412;BME280;43247;52.828;-8.980;2023-02-04T01:29:48;103272.40;;;9.80;89.20
57412;BME280;43247;52.828;-8.980;2023-02-04T01:30:49;103269.56;;;9.80;89.16
57412;BME280;43247;52.828;-8.980;2023-02-04T01:31:49;103269.38;;;9.81;89.13
57412;BME280;43247;52.828;-8.980;2023-02-04T01:32:50;103267.70;;;9.80;89.09
57412;BME280;43247;52.828;-8.980;2023-02-04T01:33:50;103269.58;;;9.82;89.06
57412;BME280;43247;52.828;-8.980;2023-02-04T01:34:50;103268.22;;;9.81;89.05
57412;BME280;43247;52.828;-8.980;2023-02-04T01:35:51;103271.16;;;9.80;89.10
57412;BME280;43247;52.828;-8.980;2023-02-04T01:36:51;103272.98;;;9.81;89.11
57412;BME280;43247;52.828;-8.980;2023-02-04T01:37:51;103272.97;;;9.81;89.10
57412;BME280;43247;52.828;-8.980;2023-02-04T01:38:51;103273.88;;;9.81;89.11
57412;BME280;43247;52.828;-8.980;2023-02-04T01:39:52;103269.91;;;9.80;89.12
57412;BME280;43247;52.828;-8.980;2023-02-04T01:40:52;103268.90;;;9.79;89.12
57412;BME280;43247;52.828;-8.980;2023-02-04T01:41:52;103269.72;;;9.79;89.13
57412;BME280;43247;52.828;-8.980;2023-02-04T01:42:52;103267.51;;;9.79;89.16
57412;BME280;43247;52.828;-8.980;2023-02-04T01:43:52;103264.80;;;9.79;89.19
57412;BME280;43247;52.828;-8.980;2023-02-04T01:44:52;103267.86;;;9.79;89.21
57412;BME280;43247;52.828;-8.980;2023-02-04T01:45:53;103266.18;;;9.79;89.17
57412;BME280;43247;52.828;-8.980;2023-02-04T01:46:53;103265.71;;;9.78;89.19
57412;BME280;43247;52.828;-8.980;2023-02-04T01:47:53;103265.84;;;9.78;89.22
57412;BME280;43247;52.828;-8.980;2023-02-04T01:48:53;103264.37;;;9.78;89.19
57412;BME280;43247;52.828;-8.980;2023-02-04T01:49:54;103265.10;;;9.78;89.15
57412;BME280;43247;52.828;-8.980;2023-02-04T01:50:58;103266.95;;;9.78;89.19
57412;BME280;43247;52.828;-8.980;2023-02-04T01:51:54;103266.23;;;9.78;89.15
57412;BME280;43247;52.828;-8.980;2023-02-04T01:52:54;103266.30;;;9.77;89.14
57412;BME280;43247;52.828;-8.980;2023-02-04T01:53:54;103266.72;;;9.77;89.18
57412;BME280;43247;52.828;-8.980;2023-02-04T01:54:54;103267.45;;;9.78;89.20
57412;BME280;43247;52.828;-8.980;2023-02-04T01:55:54;103266.27;;;9.78;89.21
57412;BME280;43247;52.828;-8.980;2023-02-04T01:56:55;103264.53;;;9.77;89.21
57412;BME280;43247;52.828;-8.980;2023-02-04T01:57:55;103266.54;;;9.77;89.18
57412;BME280;43247;52.828;-8.980;2023-02-04T01:58:56;103272.92;;;9.76;89.16
57412;BME280;43247;52.828;-8.980;2023-02-04T01:59:55;103271.44;;;9.76;89.15
57412;BME280;43247;52.828;-8.980;2023-02-04T02:00:55;103270.98;;;9.76;89.14
57412;BME280;43247;52.828;-8.980;2023-02-04T02:01:55;103269.94;;;9.75;89.14
57412;BME280;43247;52.828;-8.980;2023-02-04T02:02:57;103272.38;;;9.75;89.11
57412;BME280;43247;52.828;-8.980;2023-02-04T02:03:56;103272.19;;;9.74;89.16
57412;BME280;43247;52.828;-8.980;2023-02-04T02:04:56;103270.06;;;9.74;89.18
57412;BME280;43247;52.828;-8.980;2023-02-04T02:05:56;103270.49;;;9.73;89.22
57412;BME280;43247;52.828;-8.980;2023-02-04T02:06:59;103269.28;;;9.72;89.19
57412;BME280;43247;52.828;-8.980;2023-02-04T02:07:59;103270.04;;;9.73;89.17
57412;BME280;43247;52.828;-8.980;2023-02-04T02:08:57;103267.22;;;9.73;89.19
57412;BME280;43247;52.828;-8.980;2023-02-04T02:09:57;103266.74;;;9.72;89.28
57412;BME280;43247;52.828;-8.980;2023-02-04T02:10:57;103265.04;;;9.71;89.38
57412;BME280;43247;52.828;-8.980;2023-02-04T02:11:57;103264.07;;;9.71;89.33
57412;BME280;43247;52.828;-8.980;2023-02-04T02:12:58;103266.64;;;9.72;89.32
57412;BME280;43247;52.828;-8.980;2023-02-04T02:13:58;103267.77;;;9.72;89.29
57412;BME280;43247;52.828;-8.980;2023-02-04T02:14:58;103268.87;;;9.71;89.33
57412;BME280;43247;52.828;-8.980;2023-02-04T02:15:59;103268.99;;;9.71;89.27
57412;BME280;43247;52.828;-8.980;2023-02-04T02:16:58;103267.71;;;9.70;89.27
57412;BME280;43247;52.828;-8.980;2023-02-04T02:17:58;103268.46;;;9.70;89.29
57412;BME280;43247;52.828;-8.980;2023-02-04T02:18:59;103268.37;;;9.69;89.28
57412;BME280;43247;52.828;-8.980;2023-02-04T02:19:59;103267.14;;;9.69;89.28
57412;BME280;43247;52.828;-8.980;2023-02-04T02:21:04;103269.78;;;9.69;89.29
57412;BME280;43247;52.828;-8.980;2023-02-04T02:22:02;103267.04;;;9.69;89.25
57412;BME280;43247;52.828;-8.980;2023-02-04T02:23:03;103266.87;;;9.68;89.29
57412;BME280;43247;52.828;-8.980;2023-02-04T02:25:00;103266.18;;;9.69;89.26
57412;BME280;43247;52.828;-8.980;2023-02-04T02:26:00;103267.06;;;9.70;89.24
57412;BME280;43247;52.828;-8.980;2023-02-04T02:27:03;103268.19;;;9.70;89.19
57412;BME280;43247;52.828;-8.980;2023-02-04T02:28:03;103268.43;;;9.70;89.18
57412;BME280;43247;52.828;-8.980;2023-02-04T02:29:01;103270.13;;;9.70;89.21
57412;BME280;43247;52.828;-8.980;2023-02-04T02:30:01;103272.40;;;9.69;89.19
57412;BME280;43247;52.828;-8.980;2023-02-04T02:31:01;103275.75;;;9.68;89.16
57412;BME280;43247;52.828;-8.980;2023-02-04T02:32:02;103274.91;;;9.68;89.16
57412;BME280;43247;52.828;-8.980;2023-02-04T02:33:02;103273.98;;;9.67;89.15
57412;BME280;43247;52.828;-8.980;2023-02-04T02:34:02;103270.66;;;9.67;89.17
57412;BME280;43247;52.828;-8.980;2023-02-04T02:35:04;103271.89;;;9.67;89.19
57412;BME280;43247;52.828;-8.980;2023-02-04T02:36:03;103271.93;;;9.67;89.18
57412;BME280;43247;52.828;-8.980;2023-02-04T02:37:03;103271.61;;;9.67;89.18
57412;BME280;43247;52.828;-8.980;2023-02-04T02:38:03;103269.21;;;9.67;89.16
57412;BME280;43247;52.828;-8.980;2023-02-04T02:39:03;103266.77;;;9.68;89.16
57412;BME280;43247;52.828;-8.980;2023-02-04T02:40:05;103266.52;;;9.67;89.16
57412;BME280;43247;52.828;-8.980;2023-02-04T02:41:04;103266.23;;;9.68;89.12
57412;BME280;43247;52.828;-8.980;2023-02-04T02:42:04;103264.42;;;9.68;89.10
57412;BME280;43247;52.828;-8.980;2023-02-04T02:43:05;103263.48;;;9.68;89.11
57412;BME280;43247;52.828;-8.980;2023-02-04T02:44:04;103262.12;;;9.69;89.11
57412;BME280;43247;52.828;-8.980;2023-02-04T02:45:09;103261.36;;;9.68;89.13
57412;BME280;43247;52.828;-8.980;2023-02-04T02:46:05;103261.20;;;9.68;89.08
57412;BME280;43247;52.828;-8.980;2023-02-04T02:47:05;103262.15;;;9.68;89.13
57412;BME280;43247;52.828;-8.980;2023-02-04T02:48:05;103260.75;;;9.68;89.14
57412;BME280;43247;52.828;-8.980;2023-02-04T02:49:07;103261.06;;;9.68;89.16
57412;BME280;43247;52.828;-8.980;2023-02-04T02:50:07;103261.83;;;9.68;89.14
57412;BME280;43247;52.828;-8.980;2023-02-04T02:51:06;103263.15;;;9.67;89.06
57412;BME280;43247;52.828;-8.980;2023-02-04T02:52:07;103262.53;;;9.67;89.01
57412;BME280;43247;52.828;-8.980;2023-02-04T02:53:10;103260.05;;;9.67;89.05
57412;BME280;43247;52.828;-8.980;2023-02-04T02:54:13;103259.52;;;9.67;89.03
57412;BME280;43247;52.828;-8.980;2023-02-04T02:55:13;103258.69;;;9.67;89.04
57412;BME280;43247;52.828;-8.980;2023-02-04T02:56:08;103258.61;;;9.67;89.08
57412;BME280;43247;52.828;-8.980;2023-02-04T02:57:12;103259.49;;;9.67;89.06
57412;BME280;43247;52.828;-8.980;2023-02-04T02:58:14;103261.06;;;9.67;89.08
57412;BME280;43247;52.828;-8.980;2023-02-04T02:59:12;103261.03;;;9.67;89.05
57412;BME280;43247;52.828;-8.980;2023-02-04T03:00:13;103259.96;;;9.67;89.05
57412;BME280;43247;52.828;-8.980;2023-02-04T03:01:09;103256.58;;;9.67;89.06
57412;BME280;43247;52.828;-8.980;2023-02-04T03:02:11;103256.98;;;9.68;89.02
57412;BME280;43247;52.828;-8.980;2023-02-04T03:03:12;103257.72;;;9.68;89.01
57412;BME280;43247;52.828;-8.980;2023-02-04T03:04:10;103255.56;;;9.68;89.00
57412;BME280;43247;52.828;-8.980;2023-02-04T03:05:10;103255.28;;;9.68;89.04
57412;BME280;43247;52.828;-8.980;2023-02-04T03:06:13;103256.28;;;9.68;88.99
57412;BME280;43247;52.828;-8.980;2023-02-04T03:07:12;103256.14;;;9.68;89.00
57412;BME280;43247;52.828;-8.980;2023-02-04T03:08:11;103253.50;;;9.68;89.01
57412;BME280;43247;52.828;-8.980;2023-02-04T03:09:10;103253.10;;;9.68;89.00
57412;BME280;43247;52.828;-8.980;2023-02-04T03:10:10;103255.39;;;9.67;89.02
57412;BME280;43247;52.828;-8.980;2023-02-04T03:11:10;103255.73;;;9.67;89.00
57412;BME280;43247;52.828;-8.980;2023-02-04T03:12:11;103251.73;;;9.67;88.97
57412;BME280;43247;52.828;-8.980;2023-02-04T03:13:11;103250.67;;;9.67;88.96
57412;BME280;43247;52.828;-8.980;2023-02-04T03:14:11;103250.79;;;9.67;88.98
57412;BME280;43247;52.828;-8.980;2023-02-04T03:15:12;103252.03;;;9.68;89.00
57412;BME280;43247;52.828;-8.980;2023-02-04T03:16:12;103249.53;;;9.68;88.98
57412;BME280;43247;52.828;-8.980;2023-02-04T03:17:12;103249.89;;;9.68;88.96
57412;BME280;43247;52.828;-8.980;2023-02-04T03:18:14;103249.25;;;9.68;88.87
57412;BME280;43247;52.828;-8.980;2023-02-04T03:19:12;103247.66;;;9.67;88.90
57412;BME280;43247;52.828;-8.980;2023-02-04T03:20:13;103246.40;;;9.67;88.86
57412;BME280;43247;52.828;-8.980;2023-02-04T03:21:13;103245.69;;;9.67;88.88
57412;BME280;43247;52.828;-8.980;2023-02-04T03:22:13;103247.78;;;9.67;88.92
57412;BME280;43247;52.828;-8.980;2023-02-04T03:23:13;103249.18;;;9.67;88.86
57412;BME280;43247;52.828;-8.980;2023-02-04T03:24:13;103247.94;;;9.67;88.86
57412;BME280;43247;52.828;-8.980;2023-02-04T03:25:14;103248.05;;;9.67;88.85
57412;BME280;43247;52.828;-8.980;2023-02-04T03:26:14;103246.18;;;9.66;88.81
57412;BME280;43247;52.828;-8.980;2023-02-04T03:27:14;103245.98;;;9.67;88.81
57412;BME280;43247;52.828;-8.980;2023-02-04T03:28:14;103245.06;;;9.67;88.82
57412;BME280;43247;52.828;-8.980;2023-02-04T03:29:14;103240.76;;;9.66;88.74
57412;BME280;43247;52.828;-8.980;2023-02-04T03:30:15;103238.90;;;9.66;88.86
57412;BME280;43247;52.828;-8.980;2023-02-04T03:31:15;103239.55;;;9.67;88.80
57412;BME280;43247;52.828;-8.980;2023-02-04T03:32:15;103240.58;;;9.68;88.75
57412;BME280;43247;52.828;-8.980;2023-02-04T03:33:15;103240.30;;;9.68;88.78
57412;BME280;43247;52.828;-8.980;2023-02-04T03:34:16;103239.71;;;9.67;88.75
57412;BME280;43247;52.828;-8.980;2023-02-04T03:35:16;103240.76;;;9.67;88.79
57412;BME280;43247;52.828;-8.980;2023-02-04T03:36:16;103239.69;;;9.67;88.79
57412;BME280;43247;52.828;-8.980;2023-02-04T03:37:16;103242.86;;;9.67;88.79
57412;BME280;43247;52.828;-8.980;2023-02-04T03:38:16;103241.53;;;9.67;88.76
57412;BME280;43247;52.828;-8.980;2023-02-04T03:39:16;103244.02;;;9.67;88.75
57412;BME280;43247;52.828;-8.980;2023-02-04T03:40:17;103246.68;;;9.67;88.78
57412;BME280;43247;52.828;-8.980;2023-02-04T03:41:17;103247.61;;;9.67;88.76
57412;BME280;43247;52.828;-8.980;2023-02-04T03:42:17;103246.86;;;9.67;88.72
57412;BME280;43247;52.828;-8.980;2023-02-04T03:43:17;103246.35;;;9.66;88.75
57412;BME280;43247;52.828;-8.980;2023-02-04T03:44:17;103249.10;;;9.66;88.75
57412;BME280;43247;52.828;-8.980;2023-02-04T03:45:18;103248.77;;;9.66;88.71
57412;BME280;43247;52.828;-8.980;2023-02-04T03:46:18;103249.34;;;9.66;88.71
57412;BME280;43247;52.828;-8.980;2023-02-04T03:47:18;103245.31;;;9.66;88.67
57412;BME280;43247;52.828;-8.980;2023-02-04T03:48:18;103245.35;;;9.66;88.68
57412;BME280;43247;52.828;-8.980;2023-02-04T03:49:18;103244.79;;;9.65;88.66
57412;BME280;43247;52.828;-8.980;2023-02-04T03:50:18;103243.68;;;9.66;88.61
57412;BME280;43247;52.828;-8.980;2023-02-04T03:51:19;103241.20;;;9.66;88.60
57412;BME280;43247;52.828;-8.980;2023-02-04T03:52:19;103239.68;;;9.66;88.60
57412;BME280;43247;52.828;-8.980;2023-02-04T03:53:19;103241.71;;;9.65;88.59
57412;BME280;43247;52.828;-8.980;2023-02-04T03:54:19;103239.78;;;9.64;88.54
57412;BME280;43247;52.828;-8.980;2023-02-04T03:55:19;103240.36;;;9.64;88.49
57412;BME280;43247;52.828;-8.980;2023-02-04T03:56:19;103241.62;;;9.64;88.53
57412;BME280;43247;52.828;-8.980;2023-02-04T03:57:20;103242.34;;;9.63;88.59
57412;BME280;43247;52.828;-8.980;2023-02-04T03:58:20;103241.46;;;9.62;88.60
57412;BME280;43247;52.828;-8.980;2023-02-04T03:59:20;103243.37;;;9.61;88.62
57412;BME280;43247;52.828;-8.980;2023-02-04T04:00:20;103242.82;;;9.61;88.72
57412;BME280;43247;52.828;-8.980;2023-02-04T04:01:20;103244.48;;;9.61;88.72
57412;BME280;43247;52.828;-8.980;2023-02-04T04:02:21;103245.62;;;9.61;88.73
57412;BME280;43247;52.828;-8.980;2023-02-04T04:03:21;103243.38;;;9.60;88.74
57412;BME280;43247;52.828;-8.980;2023-02-04T04:04:21;103244.89;;;9.60;88.74
57412;BME280;43247;52.828;-8.980;2023-02-04T04:05:21;103245.51;;;9.60;88.79
57412;BME280;43247;52.828;-8.980;2023-02-04T04:06:21;103247.24;;;9.60;88.83
57412;BME280;43247;52.828;-8.980;2023-02-04T04:07:21;103245.55;;;9.60;88.94
57412;BME280;43247;52.828;-8.980;2023-02-04T04:08:22;103247.79;;;9.60;88.86
57412;BME280;43247;52.828;-8.980;2023-02-04T04:09:22;103246.13;;;9.60;88.86
57412;BME280;43247;52.828;-8.980;2023-02-04T04:10:22;103246.45;;;9.60;88.81
57412;BME280;43247;52.828;-8.980;2023-02-04T04:11:22;103248.58;;;9.59;88.84
57412;BME280;43247;52.828;-8.980;2023-02-04T04:12:22;103247.72;;;9.60;88.86
57412;BME280;43247;52.828;-8.980;2023-02-04T04:13:23;103246.44;;;9.59;88.86
57412;BME280;43247;52.828;-8.980;2023-02-04T04:14:23;103244.53;;;9.58;88.77
57412;BME280;43247;52.828;-8.980;2023-02-04T04:15:23;103245.28;;;9.58;88.78
57412;BME280;43247;52.828;-8.980;2023-02-04T04:16:23;103241.83;;;9.59;88.74
57412;BME280;43247;52.828;-8.980;2023-02-04T04:17:23;103242.80;;;9.58;88.90
57412;BME280;43247;52.828;-8.980;2023-02-04T04:18:23;103241.57;;;9.58;88.79
57412;BME280;43247;52.828;-8.980;2023-02-04T04:19:24;103242.28;;;9.58;88.88
57412;BME280;43247;52.828;-8.980;2023-02-04T04:20:24;103243.54;;;9.58;88.80
57412;BME280;43247;52.828;-8.980;2023-02-04T04:21:25;103244.73;;;9.59;88.88
57412;BME280;43247;52.828;-8.980;2023-02-04T04:22:25;103242.26;;;9.59;88.87
57412;BME280;43247;52.828;-8.980;2023-02-04T04:23:25;103240.79;;;9.59;88.86
57412;BME280;43247;52.828;-8.980;2023-02-04T04:24:25;103242.10;;;9.58;88.85
57412;BME280;43247;52.828;-8.980;2023-02-04T04:25:26;103242.95;;;9.58;88.83
57412;BME280;43247;52.828;-8.980;2023-02-04T04:26:25;103243.27;;;9.58;88.74
57412;BME280;43247;52.828;-8.980;2023-02-04T04:27:26;103242.59;;;9.57;88.79
57412;BME280;43247;52.828;-8.980;2023-02-04T04:28:26;103241.27;;;9.56;88.79
57412;BME280;43247;52.828;-8.980;2023-02-04T04:29:26;103240.08;;;9.56;88.79
57412;BME280;43247;52.828;-8.980;2023-02-04T04:30:26;103239.75;;;9.56;88.76
57412;BME280;43247;52.828;-8.980;2023-02-04T04:31:26;103238.24;;;9.57;88.79
57412;BME280;43247;52.828;-8.980;2023-02-04T04:32:26;103238.79;;;9.57;88.79
57412;BME280;43247;52.828;-8.980;2023-02-04T04:33:27;103236.96;;;9.56;88.75
57412;BME280;43247;52.828;-8.980;2023-02-04T04:34:27;103238.46;;;9.57;88.77
57412;BME280;43247;52.828;-8.980;2023-02-04T04:35:27;103239.62;;;9.56;88.85
57412;BME280;43247;52.828;-8.980;2023-02-04T04:36:27;103237.28;;;9.56;88.92
57412;BME280;43247;52.828;-8.980;2023-02-04T04:37:27;103238.11;;;9.56;88.95
57412;BME280;43247;52.828;-8.980;2023-02-04T04:38:28;103237.33;;;9.56;88.97
57412;BME280;43247;52.828;-8.980;2023-02-04T04:39:28;103241.56;;;9.57;88.94
57412;BME280;43247;52.828;-8.980;2023-02-04T04:40:28;103241.58;;;9.57;88.84
57412;BME280;43247;52.828;-8.980;2023-02-04T04:41:28;103243.94;;;9.57;88.79
57412;BME280;43247;52.828;-8.980;2023-02-04T04:42:28;103242.12;;;9.57;88.75
57412;BME280;43247;52.828;-8.980;2023-02-04T04:43:28;103242.33;;;9.57;88.71
57412;BME280;43247;52.828;-8.980;2023-02-04T04:44:29;103245.12;;;9.58;88.68
57412;BME280;43247;52.828;-8.980;2023-02-04T04:45:29;103249.06;;;9.59;88.64
57412;BME280;43247;52.828;-8.980;2023-02-04T04:46:29;103249.62;;;9.59;88.69
57412;BME280;43247;52.828;-8.980;2023-02-04T04:47:29;103249.77;;;9.59;88.64
57412;BME280;43247;52.828;-8.980;2023-02-04T04:48:29;103255.39;;;9.58;88.64
57412;BME280;43247;52.828;-8.980;2023-02-04T04:49:30;103257.05;;;9.58;88.61
57412;BME280;43247;52.828;-8.980;2023-02-04T04:50:30;103259.99;;;9.59;88.58
57412;BME280;43247;52.828;-8.980;2023-02-04T04:51:30;103260.12;;;9.58;88.57
57412;BME280;43247;52.828;-8.980;2023-02-04T04:52:30;103262.48;;;9.59;88.50
57412;BME280;43247;52.828;-8.980;2023-02-04T04:53:30;103265.24;;;9.59;88.52
57412;BME280;43247;52.828;-8.980;2023-02-04T04:54:30;103264.81;;;9.58;88.49
57412;BME280;43247;52.828;-8.980;2023-02-04T04:55:31;103263.90;;;9.59;88.46
57412;BME280;43247;52.828;-8.980;2023-02-04T04:56:31;103261.35;;;9.59;88.49
57412;BME280;43247;52.828;-8.980;2023-02-04T04:57:31;103258.78;;;9.59;88.51
57412;BME280;43247;52.828;-8.980;2023-02-04T04:58:31;103259.28;;;9.59;88.54
57412;BME280;43247;52.828;-8.980;2023-02-04T04:59:31;103258.87;;;9.59;88.48
57412;BME280;43247;52.828;-8.980;2023-02-04T05:00:32;103259.93;;;9.60;88.48
57412;BME280;43247;52.828;-8.980;2023-02-04T05:01:32;103256.63;;;9.60;88.47
57412;BME280;43247;52.828;-8.980;2023-02-04T05:02:32;103253.36;;;9.60;88.46
57412;BME280;43247;52.828;-8.980;2023-02-04T05:03:33;103253.27;;;9.60;88.43
57412;BME280;43247;52.828;-8.980;2023-02-04T05:04:33;103256.01;;;9.60;88.46
57412;BME280;43247;52.828;-8.980;2023-02-04T05:05:33;103257.12;;;9.60;88.46
57412;BME280;43247;52.828;-8.980;2023-02-04T05:06:33;103257.80;;;9.60;88.41
57412;BME280;43247;52.828;-8.980;2023-02-04T05:07:33;103260.06;;;9.60;88.44
57412;BME280;43247;52.828;-8.980;2023-02-04T05:08:34;103260.11;;;9.60;88.40
57412;BME280;43247;52.828;-8.980;2023-02-04T05:09:34;103258.85;;;9.60;88.38
57412;BME280;43247;52.828;-8.980;2023-02-04T05:10:35;103259.60;;;9.60;88.35
57412;BME280;43247;52.828;-8.980;2023-02-04T05:11:35;103260.35;;;9.60;88.30
57412;BME280;43247;52.828;-8.980;2023-02-04T05:12:35;103258.38;;;9.60;88.30
57412;BME280;43247;52.828;-8.980;2023-02-04T05:13:35;103259.65;;;9.60;88.33
57412;BME280;43247;52.828;-8.980;2023-02-04T05:14:35;103253.64;;;9.60;88.30
57412;BME280;43247;52.828;-8.980;2023-02-04T05:15:35;103253.96;;;9.60;88.31